createdAt,value
2018-03-16T00:00:05.837Z,69.73
2018-03-16T00:02:33.443Z,68.93
2018-03-16T00:05:00.965Z,71.72
2018-03-16T00:07:29.224Z,65.47
2018-03-16T00:09:56.742Z,71.27
2018-03-16T00:12:24.253Z,71.50
2018-03-16T00:14:52.569Z,72.83
2018-03-16T00:17:20.191Z,71.33
2018-03-16T00:19:47.732Z,66.87
2018-03-16T00:22:17.687Z,68.20
2018-03-16T00:24:45.208Z,76.22
2018-03-16T00:27:12.732Z,76.57
2018-03-16T00:29:40.270Z,68.70
2018-03-16T00:32:07.790Z,75.50
2018-03-16T00:34:35.325Z,77.03
2018-03-16T00:37:02.846Z,71.43
2018-03-16T00:39:30.465Z,71.95
2018-03-16T00:41:57.976Z,76.00
2018-03-16T00:44:25.539Z,74.93
2018-03-16T00:46:53.187Z,75.15
2018-03-16T00:49:20.794Z,74.70
2018-03-16T00:51:48.352Z,73.20
2018-03-16T00:54:15.982Z,74.22
2018-03-16T00:56:43.487Z,77.13
2018-03-16T00:59:11.092Z,77.57
2018-03-16T01:01:38.612Z,83.33
2018-03-16T01:04:06.190Z,73.32
2018-03-16T01:06:34.468Z,74.73
2018-03-16T01:09:02.147Z,78.55
2018-03-16T01:11:29.737Z,73.53
2018-03-16T01:13:57.397Z,76.57
2018-03-16T01:16:25.005Z,76.80
2018-03-16T01:18:53.316Z,84.72
2018-03-16T01:21:20.980Z,73.83
2018-03-16T01:23:48.525Z,76.93
2018-03-16T01:26:16.637Z,78.07
2018-03-16T01:28:44.202Z,74.40
2018-03-16T01:31:12.768Z,80.95
2018-03-16T01:33:40.292Z,75.17
2018-03-16T01:36:07.849Z,78.28
2018-03-16T01:38:35.398Z,76.70
2018-03-16T01:41:03.696Z,81.28
2018-03-16T01:43:31.213Z,81.83
2018-03-16T01:45:58.806Z,79.70
2018-03-16T01:48:27.118Z,80.78
2018-03-16T01:50:54.611Z,79.47
2018-03-16T01:53:22.132Z,78.25
2018-03-16T01:55:49.647Z,75.82
2018-03-16T01:58:17.934Z,82.53
2018-03-16T02:00:46.322Z,82.85
2018-03-16T02:03:13.900Z,81.57
2018-03-16T02:05:41.424Z,77.72
2018-03-16T02:08:09.728Z,86.45
2018-03-16T02:10:37.303Z,79.85
2018-03-16T02:13:04.932Z,82.35
2018-03-16T02:15:33.216Z,82.47
2018-03-16T02:18:00.809Z,75.28
2018-03-16T02:20:28.360Z,84.05
2018-03-16T02:22:55.921Z,91.57
2018-03-16T02:25:23.467Z,80.03
2018-03-16T02:27:56.757Z,75.35
2018-03-16T02:30:24.281Z,78.93
2018-03-16T02:32:51.868Z,77.00
2018-03-16T02:35:19.430Z,83.10
2018-03-16T02:37:47.689Z,79.18
2018-03-16T02:40:16.724Z,84.68
2018-03-16T02:42:44.274Z,77.40
2018-03-16T02:45:11.824Z,79.30
2018-03-16T02:47:39.357Z,82.75
2018-03-16T02:50:06.872Z,82.32
2018-03-16T02:52:34.420Z,77.40
2018-03-16T02:55:01.950Z,75.57
2018-03-16T02:57:30.276Z,84.15
2018-03-16T02:59:57.826Z,79.10
2018-03-16T03:02:25.361Z,77.65
2018-03-16T03:04:52.866Z,75.30
2018-03-16T03:07:20.425Z,83.00
2018-03-16T03:09:47.964Z,73.97
2018-03-16T03:12:15.547Z,82.53
2018-03-16T03:14:43.053Z,77.25
2018-03-16T03:17:10.747Z,80.38
2018-03-16T03:19:38.299Z,78.33
2018-03-16T03:22:05.909Z,80.40
2018-03-16T03:24:33.428Z,70.55
2018-03-16T03:27:01.092Z,80.30
2018-03-16T03:29:28.637Z,79.78
2018-03-16T03:31:56.175Z,82.60
2018-03-16T03:34:23.685Z,72.65
2018-03-16T03:36:51.191Z,71.22
2018-03-16T03:39:18.747Z,73.87
2018-03-16T03:41:46.327Z,73.32
2018-03-16T03:44:13.891Z,72.00
2018-03-16T03:46:41.459Z,77.90
2018-03-16T03:49:08.990Z,70.87
2018-03-16T03:51:36.596Z,82.10
2018-03-16T03:54:04.153Z,76.40
2018-03-16T03:56:31.657Z,68.47
2018-03-16T03:58:59.173Z,71.30
2018-03-16T04:01:26.691Z,70.87
2018-03-16T04:03:54.256Z,72.12
2018-03-16T04:06:21.851Z,63.90
2018-03-16T04:08:49.374Z,70.10
2018-03-16T04:11:16.887Z,64.50
2018-03-16T04:13:45.264Z,71.12
2018-03-16T04:16:13.527Z,73.30
2018-03-16T04:18:41.063Z,66.03
2018-03-16T04:21:08.626Z,73.60
2018-03-16T04:23:36.140Z,66.12
2018-03-16T04:26:03.701Z,65.57
2018-03-16T04:28:31.200Z,59.22
2018-03-16T04:30:58.716Z,63.42
2018-03-16T04:33:26.278Z,64.18
2018-03-16T04:35:54.629Z,68.07
2018-03-16T04:38:22.228Z,63.20
2018-03-16T04:40:49.828Z,64.40
2018-03-16T04:43:17.360Z,63.70
2018-03-16T04:45:44.991Z,65.57
2018-03-16T04:48:12.520Z,65.25
2018-03-16T04:50:40.062Z,63.65
2018-03-16T04:53:07.593Z,56.92
2018-03-16T04:55:35.100Z,63.20
2018-03-16T04:58:02.720Z,63.33
2018-03-16T05:00:30.515Z,58.30
2018-03-16T05:02:58.147Z,59.78
2018-03-16T05:05:26.425Z,59.08
2018-03-16T05:07:53.999Z,59.33
2018-03-16T05:10:21.593Z,64.47
2018-03-16T05:12:49.431Z,62.97
2018-03-16T05:15:16.967Z,62.00
2018-03-16T05:17:44.491Z,63.47
2018-03-16T05:20:12.094Z,56.85
2018-03-16T05:22:42.136Z,58.92
2018-03-16T05:25:09.690Z,58.63
2018-03-16T05:27:37.223Z,65.40
2018-03-16T05:30:05.569Z,59.50
2018-03-16T05:32:33.162Z,57.62
2018-03-16T05:35:05.513Z,64.28
2018-03-16T05:37:33.797Z,58.17
2018-03-16T05:40:02.086Z,57.95
2018-03-16T05:42:29.647Z,59.38
2018-03-16T05:44:57.898Z,56.63
2018-03-16T05:47:25.522Z,56.33
2018-03-16T05:49:53.029Z,56.65
2018-03-16T05:52:21.334Z,53.65
2018-03-16T05:54:48.904Z,59.00
2018-03-16T05:57:16.439Z,57.28
2018-03-16T05:59:43.964Z,56.92
2018-03-16T06:02:11.538Z,56.58
2018-03-16T06:04:39.809Z,56.15
2018-03-16T06:07:07.343Z,58.55
2018-03-16T06:09:34.883Z,57.75
2018-03-16T06:12:02.493Z,54.42
2018-03-16T06:14:30.036Z,56.28
2018-03-16T06:16:58.360Z,53.58
2018-03-16T06:19:25.926Z,59.60
2018-03-16T06:21:53.564Z,56.30
2018-03-16T06:24:21.075Z,55.47
2018-03-16T06:26:48.581Z,54.67
2018-03-16T06:29:16.905Z,52.70
2018-03-16T06:31:44.444Z,51.72
2018-03-16T06:34:11.991Z,51.67
2018-03-16T06:36:39.525Z,49.13
2018-03-16T06:39:07.833Z,50.05
2018-03-16T06:41:35.360Z,46.67
2018-03-16T06:44:03.682Z,48.55
2018-03-16T06:46:31.207Z,46.95
2018-03-16T06:48:59.529Z,48.20
2018-03-16T06:51:27.042Z,57.58
2018-03-16T06:53:55.459Z,45.38
2018-03-16T06:56:23.023Z,39.78
2018-03-16T06:58:50.512Z,36.58
2018-03-16T07:01:18.040Z,41.03
2018-03-16T07:03:45.550Z,39.50
2018-03-16T07:06:13.152Z,38.17
2018-03-16T07:08:40.670Z,38.85
2018-03-16T07:11:08.941Z,40.12
2018-03-16T07:13:36.435Z,40.55
2018-03-16T07:16:03.996Z,38.25
2018-03-16T07:18:31.596Z,39.90
2018-03-16T07:20:59.958Z,38.05
2018-03-16T07:23:27.556Z,35.95
2018-03-16T07:25:55.085Z,39.55
2018-03-16T07:28:22.610Z,35.28
2018-03-16T07:30:50.331Z,39.78
2018-03-16T07:33:17.962Z,37.38
2018-03-16T07:35:45.482Z,38.38
2018-03-16T07:38:13.004Z,36.08
2018-03-16T07:40:40.541Z,39.13
2018-03-16T07:43:08.120Z,37.83
2018-03-16T07:45:41.357Z,37.47
2018-03-16T07:48:08.905Z,39.60
2018-03-16T07:50:36.498Z,36.78
2018-03-16T07:53:03.996Z,38.28
2018-03-16T07:55:31.591Z,40.47
2018-03-16T07:57:59.858Z,38.67
2018-03-16T08:00:28.156Z,38.90
2018-03-16T08:02:55.669Z,40.28
2018-03-16T08:05:23.187Z,39.70
2018-03-16T08:07:50.732Z,39.90
2018-03-16T08:10:19.231Z,42.08
2018-03-16T08:12:46.763Z,38.08
2018-03-16T08:15:15.115Z,40.72
2018-03-16T08:17:42.569Z,40.45
2018-03-16T08:20:10.105Z,41.90
2018-03-16T08:22:37.708Z,39.78
2018-03-16T08:25:05.986Z,41.63
2018-03-16T08:27:33.505Z,41.80
2018-03-16T08:30:01.004Z,41.22
2018-03-16T08:32:29.385Z,39.25
2018-03-16T08:34:57.684Z,42.22
2018-03-16T08:37:25.181Z,43.58
2018-03-16T08:39:52.675Z,42.65
2018-03-16T08:42:20.200Z,42.03
2018-03-16T08:44:47.699Z,41.65
2018-03-16T08:47:15.967Z,38.50
2018-03-16T08:49:44.281Z,40.60
2018-03-16T08:52:12.559Z,40.63
2018-03-16T08:54:40.082Z,40.90
2018-03-16T08:57:08.390Z,39.25
2018-03-16T08:59:35.888Z,40.25
2018-03-16T09:02:03.396Z,38.22
2018-03-16T09:04:31.663Z,38.63
2018-03-16T09:07:00.078Z,39.45
2018-03-16T09:09:27.616Z,41.83
2018-03-16T09:11:55.120Z,40.58
2018-03-16T09:14:22.616Z,37.30
2018-03-16T09:16:50.938Z,40.47
2018-03-16T09:19:18.427Z,38.58
2018-03-16T09:21:45.945Z,38.67
2018-03-16T09:24:13.436Z,40.40
2018-03-16T09:26:41.046Z,40.15
2018-03-16T09:29:08.544Z,36.22
2018-03-16T09:31:36.093Z,41.13
2018-03-16T09:34:03.585Z,37.75
2018-03-16T09:36:31.208Z,40.78
2018-03-16T09:38:58.759Z,40.33
2018-03-16T09:41:26.288Z,37.47
2018-03-16T09:43:54.545Z,34.25
2018-03-16T09:46:22.061Z,37.25
2018-03-16T09:48:49.550Z,36.55
2018-03-16T09:51:17.084Z,38.42
2018-03-16T09:53:44.571Z,39.47
2018-03-16T09:56:12.090Z,37.97
2018-03-16T09:58:39.595Z,36.63
2018-03-16T10:01:07.096Z,35.80
2018-03-16T10:03:34.610Z,34.97
2018-03-16T10:06:02.116Z,35.17
2018-03-16T10:08:29.624Z,35.67
2018-03-16T10:10:57.148Z,38.50
2018-03-16T10:13:24.674Z,37.97
2018-03-16T10:15:52.943Z,34.90
2018-03-16T10:18:20.492Z,37.67
2018-03-16T10:20:48.000Z,34.67
2018-03-16T10:23:15.544Z,36.42
2018-03-16T10:25:43.051Z,34.13
2018-03-16T10:28:10.563Z,30.55
2018-03-16T10:30:38.095Z,33.60
2018-03-16T10:33:05.606Z,34.50
2018-03-16T10:35:33.115Z,37.10
2018-03-16T10:38:01.418Z,36.85
2018-03-16T10:40:28.938Z,33.83
2018-03-16T10:42:56.472Z,29.05
2018-03-16T10:45:23.982Z,32.17
2018-03-16T10:47:51.542Z,32.30
2018-03-16T10:50:19.056Z,33.33
2018-03-16T10:52:46.569Z,33.22
2018-03-16T10:55:14.092Z,31.77
2018-03-16T10:57:41.592Z,31.12
2018-03-16T11:00:09.088Z,30.48
2018-03-16T11:02:42.323Z,31.92
2018-03-16T11:05:12.789Z,31.25
2018-03-16T11:07:42.767Z,31.83
2018-03-16T11:10:11.191Z,32.22
2018-03-16T11:12:38.703Z,33.95
2018-03-16T11:15:07.804Z,32.95
2018-03-16T11:17:35.348Z,31.02
2018-03-16T11:20:03.644Z,34.38
2018-03-16T11:22:31.168Z,32.03
2018-03-16T11:24:58.657Z,32.05
2018-03-16T11:27:26.237Z,31.77
2018-03-16T11:29:53.764Z,32.30
2018-03-16T11:32:21.286Z,33.03
2018-03-16T11:34:48.909Z,31.08
2018-03-16T11:37:16.456Z,32.63
2018-03-16T11:39:43.985Z,32.70
2018-03-16T11:42:11.523Z,31.67
2018-03-16T11:44:39.140Z,31.15
2018-03-16T11:47:06.685Z,29.52
2018-03-16T11:49:34.974Z,33.00
2018-03-16T11:52:02.563Z,33.60
2018-03-16T11:54:30.144Z,39.47
2018-03-16T11:56:57.774Z,34.15
2018-03-16T11:59:25.267Z,29.73
2018-03-16T12:01:52.798Z,28.12
2018-03-16T12:04:20.538Z,27.35
2018-03-16T12:06:48.024Z,28.10
2018-03-16T12:09:15.553Z,28.77
2018-03-16T12:11:43.072Z,27.65
2018-03-16T12:14:10.596Z,30.83
2018-03-16T12:16:38.132Z,27.95
2018-03-16T12:19:05.647Z,27.83
2018-03-16T12:21:33.171Z,27.85
2018-03-16T12:24:00.693Z,27.55
2018-03-16T12:26:28.972Z,25.02
2018-03-16T12:28:57.253Z,27.40
2018-03-16T12:31:24.796Z,27.05
2018-03-16T12:33:52.307Z,28.70
2018-03-16T12:36:19.821Z,25.33
2018-03-16T12:38:47.358Z,27.75
2018-03-16T12:41:14.888Z,26.62
2018-03-16T12:43:42.397Z,28.85
2018-03-16T12:46:10.838Z,28.02
2018-03-16T12:48:38.802Z,26.77
2018-03-16T12:51:06.348Z,26.02
2018-03-16T12:53:34.062Z,27.85
2018-03-16T12:56:02.373Z,26.08
2018-03-16T12:58:30.012Z,29.75
2018-03-16T13:00:58.308Z,26.60
2018-03-16T13:03:25.818Z,28.35
2018-03-16T13:05:54.176Z,27.17
2018-03-16T13:08:21.701Z,27.17
2018-03-16T13:10:49.962Z,28.10
2018-03-16T13:13:18.239Z,26.27
2018-03-16T13:15:45.791Z,25.95
2018-03-16T13:18:13.342Z,27.15
2018-03-16T13:20:41.052Z,28.38
2018-03-16T13:23:08.545Z,25.08
2018-03-16T13:25:36.049Z,26.50
2018-03-16T13:28:04.326Z,28.35
2018-03-16T13:30:32.740Z,25.35
2018-03-16T13:33:00.248Z,27.42
2018-03-16T13:35:28.543Z,28.23
2018-03-16T13:37:56.821Z,25.85
2018-03-16T13:40:25.095Z,25.88
2018-03-16T13:42:53.385Z,24.37
2018-03-16T13:45:20.900Z,25.50
2018-03-16T13:47:48.397Z,24.17
2018-03-16T13:50:16.693Z,24.83
2018-03-16T13:52:44.957Z,26.80
2018-03-16T13:55:12.494Z,22.73
2018-03-16T13:57:40.784Z,23.98
2018-03-16T14:00:09.060Z,25.60
2018-03-16T14:02:36.571Z,24.87
2018-03-16T14:05:04.106Z,24.27
2018-03-16T14:07:31.602Z,25.48
2018-03-16T14:09:59.114Z,24.55
2018-03-16T14:12:26.620Z,25.23
2018-03-16T14:14:54.128Z,21.73
2018-03-16T14:17:21.660Z,26.23
2018-03-16T14:19:50.066Z,25.70
2018-03-16T14:22:17.627Z,23.77
2018-03-16T14:24:45.132Z,24.77
2018-03-16T14:27:12.611Z,25.45
2018-03-16T14:29:40.207Z,24.17
2018-03-16T14:32:07.775Z,26.15
2018-03-16T14:34:35.276Z,23.00
2018-03-16T14:37:02.793Z,27.90
2018-03-16T14:39:30.301Z,27.27
2018-03-16T14:41:57.808Z,23.92
2018-03-16T14:44:25.316Z,23.98
2018-03-16T14:46:52.807Z,26.08
2018-03-16T14:49:20.333Z,24.52
2018-03-16T14:51:47.818Z,24.65
2018-03-16T14:54:16.139Z,24.67
2018-03-16T14:56:43.641Z,23.70
2018-03-16T14:59:11.949Z,24.45
2018-03-16T15:01:39.448Z,24.10
2018-03-16T15:04:06.969Z,24.37
2018-03-16T15:06:34.480Z,25.60
2018-03-16T15:09:02.048Z,24.98
2018-03-16T15:11:29.556Z,22.85
2018-03-16T15:13:57.089Z,25.37
2018-03-16T15:16:25.368Z,28.95
2018-03-16T15:18:52.898Z,25.12
2018-03-16T15:21:20.413Z,28.12
2018-03-16T15:23:47.938Z,24.75
2018-03-16T15:26:16.240Z,24.08
2018-03-16T15:28:43.745Z,22.70
2018-03-16T15:31:11.271Z,22.95
2018-03-16T15:33:38.771Z,21.50
2018-03-16T15:36:06.275Z,21.10
2018-03-16T15:38:33.802Z,20.90
2018-03-16T15:41:02.082Z,22.05
2018-03-16T15:43:30.341Z,20.33
2018-03-16T15:45:57.857Z,22.10
2018-03-16T15:48:25.375Z,20.90
2018-03-16T15:50:53.656Z,22.67
2018-03-16T15:53:21.925Z,23.60
2018-03-16T15:55:50.222Z,24.52
2018-03-16T15:58:17.699Z,22.87
2018-03-16T16:00:45.229Z,24.75
2018-03-16T16:03:13.478Z,25.25
2018-03-16T16:05:41.009Z,23.42
2018-03-16T16:08:08.548Z,23.35
2018-03-16T16:10:36.081Z,24.00
2018-03-16T16:13:04.379Z,23.50
2018-03-16T16:15:31.937Z,24.10
2018-03-16T16:17:59.458Z,25.12
2018-03-16T16:20:26.984Z,22.13
2018-03-16T16:22:54.481Z,23.27
2018-03-16T16:25:22.018Z,22.20
2018-03-16T16:27:49.567Z,23.52
2018-03-16T16:30:17.070Z,23.17
2018-03-16T16:32:45.565Z,24.75
2018-03-16T16:35:13.104Z,24.17
2018-03-16T16:37:41.359Z,26.75
2018-03-16T16:40:08.860Z,26.00
2018-03-16T16:42:36.396Z,25.25
2018-03-16T16:45:04.695Z,24.65
2018-03-16T16:47:32.210Z,24.42
2018-03-16T16:49:59.708Z,22.92
2018-03-16T16:52:27.228Z,24.63
2018-03-16T16:54:54.896Z,24.20
2018-03-16T16:57:22.336Z,24.80
2018-03-16T16:59:50.078Z,24.92
2018-03-16T17:02:17.572Z,24.40
2018-03-16T17:04:45.085Z,26.80
2018-03-16T17:07:12.639Z,23.85
2018-03-16T17:09:40.220Z,25.08
2018-03-16T17:12:07.752Z,21.30
2018-03-16T17:14:35.250Z,25.10
2018-03-16T17:17:02.763Z,24.25
2018-03-16T17:19:31.052Z,21.17
2018-03-16T17:21:58.541Z,23.02
2018-03-16T17:24:26.057Z,23.55
2018-03-16T17:26:53.597Z,24.98
2018-03-16T17:29:21.104Z,23.58
2018-03-16T17:31:48.623Z,24.52
2018-03-16T17:34:16.946Z,24.58
2018-03-16T17:36:44.459Z,24.08
2018-03-16T17:39:11.998Z,22.45
2018-03-16T17:41:39.500Z,27.00
2018-03-16T17:44:07.041Z,26.98
2018-03-16T17:46:35.325Z,24.23
2018-03-16T17:49:03.606Z,24.92
2018-03-16T17:51:31.095Z,23.95
2018-03-16T17:53:58.644Z,20.60
2018-03-16T17:56:26.143Z,26.08
2018-03-16T17:58:55.256Z,21.87
2018-03-16T18:01:22.924Z,23.35
2018-03-16T18:03:51.246Z,23.10
2018-03-16T18:06:18.752Z,24.75
2018-03-16T18:08:47.031Z,22.45
2018-03-16T18:11:15.316Z,21.70
2018-03-16T18:13:43.583Z,23.75
2018-03-16T18:16:11.864Z,22.80
2018-03-16T18:18:40.172Z,22.37
2018-03-16T18:21:07.758Z,24.17
2018-03-16T18:23:35.290Z,26.58
2018-03-16T18:26:02.801Z,24.90
2018-03-16T18:28:30.488Z,24.27
2018-03-16T18:33:49.895Z,26.45
2018-03-16T18:36:17.435Z,26.87
2018-03-16T18:38:46.456Z,25.98
2018-03-16T18:41:13.983Z,26.05
2018-03-16T18:43:41.555Z,26.42
2018-03-16T18:46:09.933Z,24.50
2018-03-16T18:48:38.196Z,25.08
2018-03-16T18:51:05.702Z,24.10
2018-03-16T18:53:33.203Z,23.60
2018-03-16T18:56:00.717Z,23.65
2018-03-16T18:58:28.203Z,24.17
2018-03-16T19:00:55.700Z,24.05
2018-03-16T19:03:24.003Z,23.40
2018-03-16T19:05:51.537Z,23.02
2018-03-16T19:08:19.795Z,19.92
2018-03-16T19:10:48.085Z,21.10
2018-03-16T19:13:16.336Z,22.52
2018-03-16T19:15:43.857Z,23.55
2018-03-16T19:18:11.424Z,22.00
2018-03-16T19:20:38.948Z,22.55
2018-03-16T19:23:07.228Z,19.67
2018-03-16T19:25:35.506Z,19.70
2018-03-16T19:28:03.924Z,20.80
2018-03-16T19:30:32.699Z,21.60
2018-03-16T19:33:00.225Z,20.42
2018-03-16T19:35:27.963Z,21.12
2018-03-16T19:37:55.573Z,20.23
2018-03-16T19:40:23.079Z,20.92
2018-03-16T19:42:50.626Z,22.90
2018-03-16T19:45:18.158Z,25.12
2018-03-16T19:47:45.712Z,24.27
2018-03-16T19:50:13.882Z,27.95
2018-03-16T19:52:41.400Z,24.55
2018-03-16T19:55:08.907Z,23.17
2018-03-16T19:57:37.527Z,26.20
2018-03-16T20:00:05.858Z,25.75
2018-03-16T20:02:33.417Z,25.00
2018-03-16T20:05:00.975Z,24.00
2018-03-16T20:07:28.535Z,22.92
2018-03-16T20:09:56.071Z,23.27
2018-03-16T20:12:23.679Z,24.73
2018-03-16T20:14:51.292Z,25.80
2018-03-16T20:17:19.588Z,20.92
2018-03-16T20:19:48.099Z,20.67
2018-03-16T20:22:15.645Z,20.62
2018-03-16T20:24:43.198Z,21.45
2018-03-16T20:27:10.707Z,22.40
2018-03-16T20:29:38.257Z,18.77
2018-03-16T20:32:05.790Z,16.75
2018-03-16T20:34:33.274Z,20.70
2018-03-16T20:37:00.810Z,18.23
2018-03-16T20:39:28.308Z,20.58
2018-03-16T20:41:55.908Z,17.95
2018-03-16T20:44:23.435Z,20.70
2018-03-16T20:46:51.033Z,20.10
2018-03-16T20:49:18.631Z,21.10
2018-03-16T20:51:46.129Z,20.20
2018-03-16T20:54:14.431Z,21.60
2018-03-16T20:56:41.971Z,21.37
2018-03-16T20:59:09.516Z,17.98
2018-03-16T21:01:37.078Z,19.10
2018-03-16T21:04:04.627Z,20.90
2018-03-16T21:06:32.121Z,18.52
2018-03-16T21:08:59.683Z,20.50
2018-03-16T21:11:27.310Z,19.70
2018-03-16T21:13:55.030Z,18.17
2018-03-16T21:16:24.439Z,19.25
2018-03-16T21:18:52.278Z,21.50
2018-03-16T21:21:19.844Z,19.00
2018-03-16T21:23:47.399Z,22.15
2018-03-16T21:26:15.042Z,19.83
2018-03-16T21:28:43.535Z,18.75
2018-03-16T21:31:11.098Z,18.85
2018-03-16T21:33:38.685Z,21.85
2018-03-16T21:36:06.225Z,22.20
2018-03-16T21:38:33.797Z,19.55
2018-03-16T21:41:01.398Z,20.27
2018-03-16T21:43:28.925Z,21.42
2018-03-16T21:45:56.484Z,21.90
2018-03-16T21:48:23.990Z,18.35
2018-03-16T21:50:51.852Z,21.98
2018-03-16T21:53:19.383Z,22.25
2018-03-16T21:55:46.884Z,19.87
2018-03-16T21:58:15.153Z,19.05
2018-03-16T22:00:43.435Z,19.83
2018-03-16T22:03:11.752Z,18.90
2018-03-16T22:05:39.410Z,19.58
2018-03-16T22:08:06.901Z,20.27
2018-03-16T22:10:34.494Z,18.00
2018-03-16T22:13:02.779Z,18.55
2018-03-16T22:15:31.043Z,17.85
2018-03-16T22:17:58.527Z,19.55
2018-03-16T22:20:26.029Z,18.37
2018-03-16T22:22:53.512Z,19.90
2018-03-16T22:25:21.026Z,17.30
2018-03-16T22:27:48.519Z,16.27
2018-03-16T22:30:16.108Z,16.27
2018-03-16T22:32:44.707Z,16.85
2018-03-16T22:35:12.204Z,16.00
2018-03-16T22:37:39.709Z,14.00
2018-03-16T22:40:07.987Z,16.85
2018-03-16T22:42:36.552Z,15.60
2018-03-16T22:45:04.081Z,15.18
2018-03-16T22:47:31.568Z,15.98
2018-03-16T22:49:59.151Z,14.60
2018-03-16T22:52:28.336Z,15.30
2018-03-16T22:54:55.838Z,15.30
2018-03-16T22:57:23.359Z,14.68
2018-03-16T22:59:51.619Z,19.40
2018-03-16T23:02:19.113Z,15.23
2018-03-16T23:04:46.644Z,12.68
2018-03-16T23:07:15.805Z,16.50
2018-03-16T23:09:43.290Z,12.55
2018-03-16T23:12:10.862Z,14.00
2018-03-16T23:14:39.132Z,15.57
2018-03-16T23:17:07.399Z,17.30
2018-03-16T23:19:36.429Z,15.40
2018-03-16T23:22:03.919Z,13.90
2018-03-16T23:24:31.439Z,15.60
2018-03-16T23:26:59.687Z,13.98
2018-03-16T23:29:27.246Z,13.75
2018-03-16T23:31:54.740Z,12.20
2018-03-16T23:34:22.994Z,15.80
2018-03-16T23:36:50.566Z,12.77
2018-03-16T23:39:19.696Z,12.68
2018-03-16T23:41:47.193Z,12.23
2018-03-16T23:44:14.775Z,12.48
2018-03-16T23:46:43.051Z,13.23
2018-03-16T23:49:11.299Z,13.55
2018-03-16T23:51:38.783Z,13.20
2018-03-16T23:54:07.063Z,13.20
2018-03-16T23:56:35.330Z,14.57
2018-03-16T23:59:03.039Z,12.50
